Time;durP1;ratioP1;P1;durP2;ratioP2;P2;SDS_P1;SDS_P2;PMS_P1;PMS_P2;Temp;Humidity;BMP_temperature;BMP_pressure;BME280_temperature;BME280_humidity;BME280_pressure;Samples;Min_cycle;Max_cycle;Signal;HPM_P1;HPM_P2
2021/08/15 00:00:31;;;;;;;9.90;7.90;;;28.20;99.90;;;;;;5076775;28;20063;-45
2021/08/15 00:02:59;;;;;;;10.13;7.00;;;28.20;99.90;;;;;;5093399;28;20129;-44
2021/08/15 00:05:27;;;;;;;8.57;7.55;;;28.20;99.90;;;;;;5093517;28;20048;-44
2021/08/15 00:07:54;;;;;;;9.63;7.05;;;28.20;99.90;;;;;;5076367;28;20047;-46
2021/08/15 00:10:23;;;;;;;10.93;8.35;;;28.20;99.90;;;;;;5075925;28;20140;-44
2021/08/15 00:12:51;;;;;;;9.90;7.60;;;28.20;99.90;;;;;;5092849;28;20044;-45
2021/08/15 00:15:19;;;;;;;12.88;9.38;;;28.20;99.90;;;;;;5094482;28;20044;-43
2021/08/15 00:17:47;;;;;;;9.80;8.00;;;28.20;99.90;;;;;;5093093;28;20044;-46
2021/08/15 00:20:15;;;;;;;12.52;8.38;;;28.20;99.90;;;;;;5076180;28;20044;-44
2021/08/15 00:22:43;;;;;;;11.18;8.43;;;28.20;99.90;;;;;;5092983;28;20468;-46
2021/08/15 00:25:14;;;;;;;9.48;8.43;;;28.20;99.90;;;;;;5074904;28;20044;-44
2021/08/15 00:27:42;;;;;;;9.35;7.40;;;28.20;99.90;;;;;;5092563;28;20044;-44
2021/08/15 00:30:11;;;;;;;10.60;8.23;;;28.20;99.90;;;;;;5093027;28;20489;-44
2021/08/15 00:32:39;;;;;;;11.93;7.75;;;28.20;99.90;;;;;;5092628;28;20048;-44
2021/08/15 00:35:07;;;;;;;12.13;8.68;;;28.20;99.90;;;;;;5093143;28;20097;-44
2021/08/15 00:37:36;;;;;;;9.55;7.88;;;28.20;99.90;;;;;;5092888;28;20513;-44
2021/08/15 00:40:10;;;;;;;13.07;9.13;;;28.20;99.90;;;;;;5092407;28;20055;-44
2021/08/15 00:42:38;;;;;;;13.15;8.48;;;28.10;99.90;;;;;;5074761;28;20044;-44
2021/08/15 00:45:06;;;;;;;12.35;8.80;;;28.10;99.90;;;;;;5075736;28;20048;-44
2021/08/15 00:47:34;;;;;;;13.02;9.30;;;28.10;99.90;;;;;;5092527;28;20129;-43
2021/08/15 00:50:03;;;;;;;12.10;7.38;;;28.00;99.90;;;;;;5093097;28;20040;-44
2021/08/15 00:52:32;;;;;;;11.88;8.48;;;28.00;99.90;;;;;;5075693;28;20155;-44
2021/08/15 00:55:04;;;;;;;12.25;9.15;;;28.00;99.90;;;;;;5092628;28;20608;-44
2021/08/15 00:57:34;;;;;;;13.05;8.02;;;27.90;99.90;;;;;;5091343;28;20048;-44
2021/08/15 01:00:07;;;;;;;11.10;8.35;;;27.90;99.90;;;;;;5076128;28;20098;-44
2021/08/15 01:02:36;;;;;;;14.05;8.90;;;27.90;99.90;;;;;;5093336;28;20040;-44
2021/08/15 01:05:05;;;;;;;10.00;7.70;;;27.90;99.90;;;;;;5094050;28;20044;-45
2021/08/15 01:07:32;;;;;;;11.63;8.93;;;27.80;99.70;;;;;;5092219;28;20043;-44
2021/08/15 01:10:01;;;;;;;11.07;9.15;;;27.80;99.50;;;;;;5092793;28;20067;-44
2021/08/15 01:12:29;;;;;;;11.52;9.52;;;27.80;99.10;;;;;;5090626;28;20044;-44
2021/08/15 01:14:57;;;;;;;13.55;9.98;;;27.80;98.70;;;;;;5092218;28;20052;-45
2021/08/15 01:17:29;;;;;;;12.73;8.77;;;27.80;98.20;;;;;;5093062;28;20398;-44
2021/08/15 01:20:00;;;;;;;10.23;8.55;;;27.80;97.90;;;;;;5092286;28;20070;-43
2021/08/15 01:22:28;;;;;;;11.57;8.45;;;27.80;97.60;;;;;;5091676;28;20043;-44
2021/08/15 01:24:58;;;;;;;10.48;7.78;;;27.80;97.30;;;;;;5092716;28;20067;-44
2021/08/15 01:27:27;;;;;;;10.88;7.93;;;27.70;97.10;;;;;;5090804;28;20048;-46
2021/08/15 01:29:55;;;;;;;11.52;7.00;;;27.80;97.00;;;;;;5091691;28;20040;-45
2021/08/15 01:32:23;;;;;;;10.82;8.60;;;27.80;96.90;;;;;;5091108;28;20047;-45
2021/08/15 01:34:51;;;;;;;9.88;7.88;;;27.80;96.80;;;;;;5075055;28;20486;-44
2021/08/15 01:37:23;;;;;;;9.43;7.28;;;27.80;96.70;;;;;;5090398;28;20056;-44
2021/08/15 01:39:50;;;;;;;12.45;8.43;;;27.80;96.60;;;;;;5075410;28;20401;-44
2021/08/15 01:42:18;;;;;;;9.15;6.60;;;27.70;96.60;;;;;;5091790;28;20424;-44
2021/08/15 01:44:46;;;;;;;12.15;7.93;;;27.70;96.50;;;;;;5091121;28;20040;-44
2021/08/15 01:47:13;;;;;;;12.60;7.53;;;27.70;96.30;;;;;;5091099;28;20085;-46
2021/08/15 01:49:41;;;;;;;10.07;6.72;;;27.70;95.90;;;;;;5091582;28;20136;-44
2021/08/15 01:52:09;;;;;;;9.43;6.80;;;27.70;95.60;;;;;;5091129;28;20059;-44
2021/08/15 01:54:37;;;;;;;10.73;6.97;;;27.70;95.00;;;;;;5083004;28;20070;-44
2021/08/15 01:57:04;;;;;;;9.73;6.53;;;27.70;94.80;;;;;;5091502;28;20086;-44
2021/08/15 01:59:32;;;;;;;8.23;6.40;;;27.70;94.40;;;;;;5073765;28;20072;-44
2021/08/15 02:02:00;;;;;;;10.02;6.55;;;27.70;93.90;;;;;;5091951;28;20043;-44
2021/08/15 02:04:28;;;;;;;8.18;6.38;;;27.60;93.60;;;;;;5091282;28;20048;-43
2021/08/15 02:06:55;;;;;;;10.90;7.20;;;27.60;93.80;;;;;;5091312;28;20045;-44
2021/08/15 02:09:23;;;;;;;9.32;6.90;;;27.60;94.20;;;;;;5091601;28;20044;-44
2021/08/15 02:11:50;;;;;;;11.50;8.10;;;27.60;94.90;;;;;;5091365;28;20044;-43
2021/08/15 02:14:18;;;;;;;12.55;8.77;;;27.50;95.50;;;;;;5090294;28;20044;-45
2021/08/15 02:16:46;;;;;;;11.00;9.30;;;27.50;96.20;;;;;;5091543;28;20097;-43
2021/08/15 02:19:13;;;;;;;14.30;10.05;;;27.50;96.70;;;;;;5092744;28;20044;-44
2021/08/15 02:21:41;;;;;;;13.45;10.65;;;27.50;97.30;;;;;;5090874;28;20383;-43
2021/08/15 02:24:09;;;;;;;13.80;10.18;;;27.40;97.60;;;;;;5091606;28;20048;-43
2021/08/15 02:26:36;;;;;;;16.60;11.63;;;27.30;98.00;;;;;;5074015;28;20498;-44
2021/08/15 02:29:04;;;;;;;16.08;11.40;;;27.30;98.40;;;;;;5087787;28;20036;-44
2021/08/15 02:31:32;;;;;;;13.90;11.70;;;27.30;98.60;;;;;;5090222;28;20048;-44
2021/08/15 02:33:59;;;;;;;12.55;10.55;;;27.20;98.70;;;;;;5074363;28;20036;-43
2021/08/15 02:36:27;;;;;;;15.75;11.15;;;27.20;98.80;;;;;;5090414;28;20072;-43
2021/08/15 02:38:55;;;;;;;15.55;11.35;;;27.10;99.00;;;;;;5074754;28;20055;-43
2021/08/15 02:41:23;;;;;;;14.68;11.48;;;27.10;99.10;;;;;;5074077;28;20147;-43
2021/08/15 02:43:50;;;;;;;14.45;11.95;;;27.10;99.30;;;;;;5092348;28;20044;-43
2021/08/15 02:46:18;;;;;;;17.27;11.73;;;27.10;99.40;;;;;;5089764;28;20044;-44
2021/08/15 02:48:46;;;;;;;16.45;12.80;;;27.00;99.40;;;;;;5075787;28;20064;-43
2021/08/15 02:51:13;;;;;;;19.33;13.45;;;27.00;99.50;;;;;;5094696;28;20439;-45
2021/08/15 02:53:41;;;;;;;18.65;13.18;;;26.90;99.60;;;;;;5094984;28;20044;-43
2021/08/15 02:56:09;;;;;;;18.52;13.93;;;26.90;99.60;;;;;;5094909;28;20051;-44
2021/08/15 02:58:37;;;;;;;19.05;15.13;;;26.90;99.40;;;;;;5094773;28;20048;-43
2021/08/15 03:01:04;;;;;;;21.17;16.25;;;26.90;99.30;;;;;;5077903;28;20044;-44
2021/08/15 03:03:32;;;;;;;18.08;14.43;;;26.90;99.20;;;;;;5095285;28;20046;-43
2021/08/15 03:06:00;;;;;;;23.52;14.85;;;26.80;99.10;;;;;;5094644;28;20093;-43
2021/08/15 03:08:27;;;;;;;22.13;16.00;;;26.80;99.10;;;;;;5077205;28;20139;-43
2021/08/15 03:10:55;;;;;;;21.23;14.35;;;26.80;98.90;;;;;;5094699;28;20535;-43
2021/08/15 03:13:22;;;;;;;25.83;16.85;;;26.80;99.00;;;;;;5077510;28;20118;-44
2021/08/15 03:15:50;;;;;;;23.30;14.32;;;26.70;99.30;;;;;;5094671;28;20109;-45
2021/08/15 03:18:18;;;;;;;17.88;13.40;;;26.70;99.30;;;;;;5093042;28;20047;-43
2021/08/15 03:20:46;;;;;;;16.73;12.55;;;26.70;99.50;;;;;;5094147;28;20143;-44
2021/08/15 03:23:13;;;;;;;15.13;12.32;;;26.70;99.70;;;;;;5076985;28;20486;-47
2021/08/15 03:25:41;;;;;;;14.10;11.88;;;26.60;99.70;;;;;;5077729;28;20113;-43
2021/08/15 03:28:09;;;;;;;16.45;11.93;;;26.60;99.70;;;;;;5077204;28;20047;-44
2021/08/15 03:30:37;;;;;;;14.77;11.65;;;26.60;99.70;;;;;;5077542;28;20446;-44
2021/08/15 03:33:04;;;;;;;16.48;11.63;;;26.60;99.70;;;;;;5094097;28;20063;-45
2021/08/15 03:35:32;;;;;;;14.82;11.13;;;26.60;99.60;;;;;;5094143;28;20048;-44
2021/08/15 03:38:00;;;;;;;15.07;11.35;;;26.60;99.70;;;;;;5076402;28;20040;-44
2021/08/15 03:40:27;;;;;;;17.10;11.70;;;26.50;99.50;;;;;;5094037;28;20047;-45
2021/08/15 03:42:55;;;;;;;10.80;9.57;;;26.50;99.60;;;;;;5093407;28;20040;-44
2021/08/15 03:45:22;;;;;;;12.93;10.48;;;26.50;99.60;;;;;;5093951;28;20036;-43
2021/08/15 03:47:50;;;;;;;14.88;10.32;;;26.50;99.50;;;;;;5092924;28;20044;-44
2021/08/15 03:50:18;;;;;;;14.60;9.70;;;26.50;99.50;;;;;;5093999;28;20043;-45
2021/08/15 03:52:45;;;;;;;15.90;11.50;;;26.50;99.60;;;;;;5094467;28;20043;-45
2021/08/15 03:55:13;;;;;;;15.32;11.02;;;26.40;99.50;;;;;;5094128;28;20105;-43
2021/08/15 03:57:42;;;;;;;15.65;10.65;;;26.40;99.50;;;;;;5093409;28;20127;-44
2021/08/15 04:00:10;;;;;;;11.93;10.65;;;26.40;99.50;;;;;;5092998;28;20453;-43
2021/08/15 04:02:38;;;;;;;17.00;10.80;;;26.40;99.40;;;;;;5093417;28;20063;-43
2021/08/15 04:05:06;;;;;;;14.43;10.25;;;26.40;99.40;;;;;;5093991;28;20424;-46
2021/08/15 04:07:34;;;;;;;12.02;9.75;;;26.40;99.20;;;;;;5093005;28;20051;-44
2021/08/15 04:10:03;;;;;;;13.45;10.48;;;26.40;99.20;;;;;;5076942;28;20048;-43
2021/08/15 04:12:30;;;;;;;15.70;10.27;;;26.40;99.10;;;;;;5092887;28;20508;-43
2021/08/15 04:14:58;;;;;;;13.43;11.63;;;26.40;99.00;;;;;;5093590;28;20123;-43
2021/08/15 04:17:26;;;;;;;14.70;10.95;;;26.30;99.00;;;;;;5076140;28;20469;-43
2021/08/15 04:19:53;;;;;;;14.13;10.45;;;26.30;98.70;;;;;;5093474;28;20056;-43
2021/08/15 04:22:21;;;;;;;14.40;9.88;;;26.30;98.40;;;;;;5092209;28;20054;-43
2021/08/15 04:24:49;;;;;;;12.38;9.68;;;26.30;98.20;;;;;;5093095;28;20127;-44
2021/08/15 04:27:16;;;;;;;12.65;9.30;;;26.30;98.00;;;;;;5092769;28;20039;-44
2021/08/15 04:29:44;;;;;;;16.60;10.32;;;26.30;97.70;;;;;;5094779;28;20051;-44
2021/08/15 04:32:12;;;;;;;10.63;9.20;;;26.40;97.30;;;;;;5092663;28;20039;-43
2021/08/15 04:34:39;;;;;;;13.25;10.32;;;26.40;96.90;;;;;;5092809;28;20048;-44
2021/08/15 04:37:08;;;;;;;11.50;8.73;;;26.40;96.50;;;;;;5074915;28;20499;-44
2021/08/15 04:39:37;;;;;;;14.95;8.35;;;26.50;95.80;;;;;;5084164;28;20129;-43
2021/08/15 04:42:05;;;;;;;12.50;9.00;;;26.60;95.30;;;;;;5075450;28;20116;-44
2021/08/15 04:44:32;;;;;;;11.93;8.52;;;26.70;94.50;;;;;;5075991;28;20155;-43
2021/08/15 04:47:00;;;;;;;13.38;8.80;;;26.70;93.50;;;;;;5092867;28;20444;-44
2021/08/15 04:49:28;;;;;;;11.25;8.25;;;26.80;92.60;;;;;;5093012;28;20045;-44
2021/08/15 04:51:55;;;;;;;12.68;8.52;;;26.90;91.90;;;;;;5090980;28;20036;-45
2021/08/15 04:54:26;;;;;;;10.15;8.02;;;27.00;91.20;;;;;;5091777;28;20052;-45
2021/08/15 04:56:56;;;;;;;11.15;7.45;;;27.20;90.70;;;;;;5075505;28;20081;-43
2021/08/15 04:59:24;;;;;;;14.82;8.30;;;27.30;90.20;;;;;;5092685;28;20044;-44
2021/08/15 05:01:53;;;;;;;12.15;7.18;;;27.40;88.90;;;;;;5075420;28;20040;-44
2021/08/15 05:04:21;;;;;;;10.63;7.45;;;27.50;88.00;;;;;;5059212;28;20082;-44
2021/08/15 05:06:48;;;;;;;12.10;8.13;;;27.70;87.00;;;;;;5090949;28;20046;-44
2021/08/15 05:09:16;;;;;;;10.27;7.50;;;27.80;85.80;;;;;;5092029;28;20036;-43
2021/08/15 05:11:44;;;;;;;12.15;7.97;;;27.90;84.30;;;;;;5091481;28;20040;-44
2021/08/15 05:14:11;;;;;;;13.68;7.80;;;28.10;83.20;;;;;;5093652;28;20382;-44
2021/08/15 05:16:39;;;;;;;10.73;7.38;;;28.20;82.90;;;;;;5091895;28;20561;-44
2021/08/15 05:19:07;;;;;;;9.73;7.28;;;28.30;82.70;;;;;;5092353;28;20517;-44
2021/08/15 05:21:34;;;;;;;11.65;7.88;;;28.40;82.90;;;;;;5091103;28;20075;-44
2021/08/15 05:24:02;;;;;;;12.18;7.35;;;28.60;83.30;;;;;;5091366;28;20149;-44
2021/08/15 05:26:30;;;;;;;11.35;8.10;;;28.70;83.60;;;;;;5091377;28;20051;-44
2021/08/15 05:28:57;;;;;;;11.45;7.78;;;28.90;84.50;;;;;;5075292;28;20044;-44
2021/08/15 05:31:25;;;;;;;11.25;8.25;;;29.00;86.40;;;;;;5091936;28;20039;-44
2021/08/15 05:33:53;;;;;;;11.55;8.43;;;29.10;87.90;;;;;;5091945;28;20048;-44
2021/08/15 05:36:20;;;;;;;10.63;7.43;;;29.30;89.90;;;;;;5091358;28;20037;-44
2021/08/15 05:38:48;;;;;;;13.80;8.77;;;29.40;90.30;;;;;;5071788;28;20115;-45
2021/08/15 05:41:15;;;;;;;8.77;7.78;;;29.50;90.60;;;;;;5074402;28;20044;-44
2021/08/15 05:43:43;;;;;;;12.80;7.40;;;29.70;90.80;;;;;;5092960;28;20036;-44
2021/08/15 05:46:12;;;;;;;12.15;7.95;;;29.80;90.90;;;;;;5091476;28;20044;-44
2021/08/15 05:48:39;;;;;;;12.38;7.93;;;29.90;91.10;;;;;;5074094;28;20517;-44
2021/08/15 05:51:07;;;;;;;12.50;8.13;;;30.00;91.20;;;;;;5092402;28;20052;-45
2021/08/15 05:53:35;;;;;;;11.98;8.88;;;30.10;91.30;;;;;;5073094;28;20060;-45
2021/08/15 05:56:02;;;;;;;11.07;8.25;;;30.20;91.40;;;;;;5091052;28;20497;-45
2021/08/15 05:58:30;;;;;;;11.73;8.20;;;30.30;91.30;;;;;;5091422;28;20459;-46
2021/08/15 06:00:58;;;;;;;10.65;7.32;;;30.40;91.30;;;;;;5091523;28;20043;-44
2021/08/15 06:03:25;;;;;;;8.82;7.22;;;30.60;91.30;;;;;;5091306;28;20139;-44
2021/08/15 06:05:53;;;;;;;12.80;8.80;;;30.70;91.10;;;;;;5091391;28;20051;-47
2021/08/15 06:08:21;;;;;;;12.10;7.85;;;30.80;90.90;;;;;;5090608;28;20048;-44
2021/08/15 06:10:48;;;;;;;9.80;7.57;;;31.00;90.70;;;;;;5073954;28;20040;-45
2021/08/15 06:13:16;;;;;;;13.43;7.85;;;31.00;90.40;;;;;;5091990;28;20051;-44
2021/08/15 06:15:44;;;;;;;16.10;8.52;;;31.10;90.30;;;;;;5091653;28;20055;-44
2021/08/15 06:18:13;;;;;;;10.07;7.38;;;31.20;89.90;;;;;;5074242;28;20054;-44
2021/08/15 06:20:41;;;;;;;14.07;6.85;;;31.20;89.00;;;;;;5071276;28;20178;-44
2021/08/15 06:23:09;;;;;;;8.93;6.88;;;31.30;87.50;;;;;;5088555;28;20044;-44
2021/08/15 06:25:36;;;;;;;11.25;7.78;;;31.50;86.50;;;;;;5094267;28;20126;-44
2021/08/15 06:28:04;;;;;;;10.98;6.93;;;31.50;85.20;;;;;;5094302;28;20383;-48
2021/08/15 06:30:31;;;;;;;10.15;6.57;;;31.70;84.10;;;;;;5078187;28;20056;-44
2021/08/15 06:33:01;;;;;;;11.20;7.03;;;31.80;83.10;;;;;;5094861;28;20032;-45
2021/08/15 06:35:28;;;;;;;9.05;7.22;;;31.90;82.10;;;;;;5095539;28;20044;-47
2021/08/15 06:37:56;;;;;;;9.48;7.07;;;32.10;80.80;;;;;;5095152;28;20056;-44
2021/08/15 06:40:27;;;;;;;11.80;7.75;;;32.10;79.40;;;;;;5094576;28;20067;-45
2021/08/15 06:43:15;;;;;;;9.85;7.13;;;32.30;78.20;;;;;;5076739;28;20417;-45
2021/08/15 06:45:44;;;;;;;16.05;7.60;;;32.50;78.00;;;;;;5075986;28;20040;-44
2021/08/15 06:48:12;;;;;;;9.48;6.88;;;32.60;76.50;;;;;;5093335;28;20044;-44
2021/08/15 06:50:40;;;;;;;11.98;7.53;;;32.70;74.90;;;;;;5058290;28;20043;-45
2021/08/15 06:53:07;;;;;;;9.10;5.63;;;32.90;73.20;;;;;;5074492;28;20044;-44
2021/08/15 06:55:35;;;;;;;8.50;6.75;;;33.00;71.90;;;;;;5094557;28;20044;-45
2021/08/15 06:58:03;;;;;;;10.30;6.38;;;33.00;70.80;;;;;;5076404;28;20048;-44
2021/08/15 07:00:30;;;;;;;11.63;7.15;;;33.20;69.00;;;;;;5095687;28;20048;-44
2021/08/15 07:02:59;;;;;;;13.10;6.53;;;33.20;68.50;;;;;;5095475;28;20050;-45
2021/08/15 07:05:28;;;;;;;8.65;6.13;;;33.30;67.80;;;;;;5061216;28;20082;-45
2021/08/15 07:07:56;;;;;;;9.20;6.22;;;33.40;67.20;;;;;;5094214;28;20044;-44
2021/08/15 07:10:23;;;;;;;11.07;6.68;;;33.50;69.50;;;;;;5094165;28;20521;-46
2021/08/15 07:12:55;;;;;;;12.27;6.35;;;33.70;70.40;;;;;;5093783;28;20051;-45
2021/08/15 07:15:28;;;;;;;11.23;6.40;;;33.80;69.00;;;;;;5077272;28;20562;-44
2021/08/15 07:17:57;;;;;;;8.05;5.60;;;33.90;68.00;;;;;;5076806;28;20044;-44
2021/08/15 07:20:25;;;;;;;11.30;6.05;;;34.00;68.80;;;;;;5094220;28;20078;-44
2021/08/15 07:22:53;;;;;;;7.28;6.00;;;34.10;68.10;;;;;;5093833;28;20130;-45
2021/08/15 07:25:24;;;;;;;8.63;5.82;;;34.20;68.10;;;;;;5093835;28;20060;-45
2021/08/15 07:27:52;;;;;;;8.95;5.97;;;34.30;67.50;;;;;;5075991;28;20120;-45
2021/08/15 07:30:20;;;;;;;6.88;5.63;;;34.30;67.00;;;;;;5094414;28;20135;-44
2021/08/15 07:32:53;;;;;;;8.45;5.43;;;34.30;66.70;;;;;;5093357;28;20516;-45
2021/08/15 07:35:22;;;;;;;7.47;6.05;;;34.40;66.50;;;;;;5095266;28;20048;-44
2021/08/15 07:37:50;;;;;;;9.73;6.43;;;34.50;66.30;;;;;;5093655;28;20048;-45
2021/08/15 07:40:19;;;;;;;7.32;5.35;;;34.50;64.80;;;;;;5077422;28;20058;-45
2021/08/15 07:42:50;;;;;;;7.22;6.07;;;34.50;65.20;;;;;;5092966;28;20051;-44
2021/08/15 07:45:20;;;;;;;7.95;5.70;;;34.60;65.20;;;;;;5075997;28;20044;-46
2021/08/15 07:47:48;;;;;;;11.95;6.22;;;34.70;64.80;;;;;;5093190;28;20044;-44
2021/08/15 07:50:16;;;;;;;6.93;5.63;;;34.70;64.90;;;;;;5077040;28;20436;-44
2021/08/15 07:52:44;;;;;;;10.50;5.82;;;34.80;64.80;;;;;;5093491;28;20417;-45
2021/08/15 07:55:12;;;;;;;8.02;5.35;;;34.80;64.00;;;;;;5093648;28;20573;-44
2021/08/15 07:57:40;;;;;;;11.25;5.18;;;34.90;63.90;;;;;;5076433;28;20071;-45
2021/08/15 08:00:08;;;;;;;7.38;5.40;;;35.00;63.50;;;;;;5092657;28;20044;-45
2021/08/15 08:02:36;;;;;;;9.00;5.97;;;35.00;63.40;;;;;;5092454;28;20498;-45
2021/08/15 08:05:04;;;;;;;8.50;5.40;;;35.00;63.10;;;;;;5093786;28;20131;-44
2021/08/15 08:07:32;;;;;;;8.00;5.57;;;35.10;63.20;;;;;;5076553;28;20044;-44
2021/08/15 08:10:00;;;;;;;10.75;5.07;;;35.10;62.30;;;;;;5093833;28;20414;-45
2021/08/15 08:12:29;;;;;;;6.93;5.32;;;35.10;63.30;;;;;;5094297;28;20048;-45
2021/08/15 08:14:57;;;;;;;7.00;5.68;;;35.00;63.80;;;;;;5075531;28;20420;-45
2021/08/15 08:17:24;;;;;;;5.97;4.45;;;35.10;64.20;;;;;;5092352;28;20044;-45
2021/08/15 08:19:52;;;;;;;7.30;4.68;;;35.10;63.90;;;;;;5094652;28;20059;-47
2021/08/15 08:22:20;;;;;;;6.43;4.30;;;35.10;64.30;;;;;;5092465;28;20031;-47
2021/08/15 08:24:47;;;;;;;7.00;4.60;;;35.20;64.30;;;;;;5093440;28;20048;-45
2021/08/15 08:27:17;;;;;;;5.00;4.22;;;35.20;64.70;;;;;;5092885;28;20502;-44
2021/08/15 08:29:45;;;;;;;13.48;5.30;;;35.30;65.00;;;;;;5092440;28;20514;-44
2021/08/15 08:32:13;;;;;;;6.00;4.95;;;35.30;65.00;;;;;;5093411;28;20096;-57
2021/08/15 08:34:40;;;;;;;6.05;4.88;;;35.40;64.80;;;;;;5092940;28;20040;-44
2021/08/15 08:37:08;;;;;;;7.10;5.03;;;35.50;65.30;;;;;;5092389;28;20130;-44
2021/08/15 08:39:36;;;;;;;7.10;6.25;;;35.60;65.60;;;;;;5085675;28;20040;-44
2021/08/15 08:42:06;;;;;;;6.68;4.85;;;35.50;66.10;;;;;;5075687;28;20127;-45
2021/08/15 08:44:35;;;;;;;8.38;4.85;;;35.40;66.40;;;;;;5094067;28;20035;-44
2021/08/15 08:47:11;;;;;;;7.13;4.82;;;35.50;66.10;;;;;;5091950;28;20051;-45
2021/08/15 08:49:41;;;;;;;7.65;4.80;;;35.50;66.30;;;;;;5084669;28;20044;-45
2021/08/15 08:52:09;;;;;;;7.28;5.40;;;35.40;66.20;;;;;;5093127;28;20044;-45
2021/08/15 08:54:37;;;;;;;6.18;5.18;;;35.50;65.90;;;;;;5100544;28;20401;-44
2021/08/15 08:57:04;;;;;;;6.10;5.22;;;35.50;66.00;;;;;;5092321;28;20495;-45
2021/08/15 08:59:37;;;;;;;8.77;5.40;;;35.50;66.40;;;;;;5094165;28;20102;-44
2021/08/15 09:02:05;;;;;;;12.43;5.10;;;35.60;66.00;;;;;;5092778;28;20152;-45
2021/08/15 09:04:33;;;;;;;7.03;4.97;;;35.60;66.10;;;;;;5075204;28;20453;-44
2021/08/15 09:07:16;;;;;;;7.82;5.28;;;35.60;65.80;;;;;;5090319;28;20047;-45
2021/08/15 09:09:56;;;;;;;7.28;4.38;;;35.70;66.00;;;;;;5066405;28;20044;-45
2021/08/15 09:12:41;;;;;;;7.35;4.95;;;35.80;66.10;;;;;;5073409;28;20044;-46
2021/08/15 09:15:18;;;;;;;11.40;4.97;;;35.80;65.80;;;;;;5091968;28;20111;-45
2021/08/15 09:17:47;;;;;;;9.57;5.63;;;35.80;66.10;;;;;;5090854;28;20044;-47
2021/08/15 09:20:23;;;;;;;9.48;6.03;;;35.80;66.90;;;;;;5091703;28;20074;-46
2021/08/15 09:22:51;;;;;;;7.95;4.90;;;35.90;66.60;;;;;;5089965;28;20059;-46
2021/08/15 09:25:23;;;;;;;8.35;4.90;;;35.90;67.30;;;;;;5074010;28;20055;-44
2021/08/15 09:27:56;;;;;;;6.72;5.25;;;35.90;66.90;;;;;;5090256;28;20047;-47
2021/08/15 09:30:31;;;;;;;8.05;5.15;;;35.90;66.80;;;;;;5091920;28;20097;-45
2021/08/15 09:33:08;;;;;;;8.52;5.13;;;35.80;66.60;;;;;;5089385;28;20070;-45
2021/08/15 09:35:36;;;;;;;7.78;6.05;;;35.80;66.60;;;;;;5091220;28;20117;-49
2021/08/15 09:38:12;;;;;;;10.15;5.78;;;35.80;67.20;;;;;;5091237;28;20105;-49
2021/08/15 09:40:44;;;;;;;13.73;6.38;;;35.80;67.50;;;;;;5053287;28;20147;-45
2021/08/15 09:43:23;;;;;;;9.40;5.85;;;35.90;67.10;;;;;;5087735;28;20105;-47
2021/08/15 09:45:51;;;;;;;8.85;5.60;;;36.00;66.20;;;;;;5052951;28;20068;-45
2021/08/15 09:48:39;;;;;;;8.32;6.05;;;36.00;65.80;;;;;;5070072;28;20044;-47
2021/08/15 09:51:10;;;;;;;9.02;6.70;;;36.10;65.50;;;;;;5090260;28;20072;-47
2021/08/15 09:53:40;;;;;;;9.13;6.07;;;36.00;66.10;;;;;;5089577;28;20142;-46
2021/08/15 09:56:09;;;;;;;7.70;5.80;;;36.00;66.50;;;;;;5090108;28;20044;-46
2021/08/15 09:58:38;;;;;;;9.10;6.40;;;36.00;66.90;;;;;;5088862;28;20105;-46
2021/08/15 10:01:07;;;;;;;7.75;6.53;;;36.00;66.30;;;;;;5073571;28;20040;-46
2021/08/15 10:03:42;;;;;;;8.05;6.47;;;35.90;66.30;;;;;;5089101;28;20044;-46
2021/08/15 10:06:14;;;;;;;7.60;5.50;;;36.00;66.00;;;;;;5090267;28;20519;-45
2021/08/15 10:08:42;;;;;;;7.43;6.43;;;36.10;66.30;;;;;;5072645;28;20047;-45
2021/08/15 10:11:09;;;;;;;8.45;6.30;;;36.10;66.10;;;;;;5072767;28;20458;-47
2021/08/15 10:13:37;;;;;;;9.10;6.93;;;36.20;65.60;;;;;;5090979;28;20070;-45
2021/08/15 10:16:08;;;;;;;8.65;6.80;;;36.20;65.60;;;;;;5091202;28;20058;-44
2021/08/15 10:18:41;;;;;;;11.15;7.07;;;36.20;65.80;;;;;;5091021;28;20044;-45
2021/08/15 10:21:16;;;;;;;7.88;6.00;;;36.20;65.50;;;;;;5090804;28;20379;-45
2021/08/15 10:23:46;;;;;;;11.52;7.10;;;36.30;65.20;;;;;;5090630;28;20056;-45
2021/08/15 10:26:26;;;;;;;9.82;7.38;;;36.40;64.10;;;;;;5057251;28;20040;-48
2021/08/15 10:28:54;;;;;;;13.30;7.43;;;36.40;64.50;;;;;;5074928;28;20048;-44
2021/08/15 10:31:22;;;;;;;9.38;7.65;;;36.50;64.80;;;;;;5074114;28;20048;-47
2021/08/15 10:33:55;;;;;;;9.90;6.68;;;36.40;63.70;;;;;;5074454;28;20051;-45
2021/08/15 10:36:31;;;;;;;8.52;7.20;;;36.30;64.00;;;;;;5090218;28;20127;-45
2021/08/15 10:39:01;;;;;;;9.57;6.80;;;36.10;64.30;;;;;;5092199;28;20078;-47
2021/08/15 10:41:48;;;;;;;11.75;6.90;;;36.10;64.20;;;;;;5057635;28;20102;-45
2021/08/15 10:44:17;;;;;;;8.80;6.93;;;36.10;64.40;;;;;;5089575;28;20078;-45
2021/08/15 10:47:12;;;;;;;11.07;7.47;;;36.10;64.80;;;;;;5090332;28;20062;-48
2021/08/15 10:49:52;;;;;;;10.18;7.22;;;36.10;64.40;;;;;;5084422;28;20075;-45
2021/08/15 10:52:26;;;;;;;8.63;6.35;;;36.10;64.70;;;;;;5090044;28;20106;-45
2021/08/15 10:54:59;;;;;;;10.57;7.75;;;36.20;64.60;;;;;;5073419;28;20048;-45
2021/08/15 10:57:50;;;;;;;10.13;6.80;;;36.20;63.40;;;;;;5073131;28;20399;-45
2021/08/15 11:00:31;;;;;;;9.20;7.43;;;36.30;62.80;;;;;;5074098;28;20059;-45
2021/08/15 11:03:23;;;;;;;11.75;7.55;;;36.30;62.00;;;;;;5090509;28;20048;-44
2021/08/15 11:05:51;;;;;;;11.07;7.38;;;36.40;62.80;;;;;;5086354;28;20039;-45
2021/08/15 11:08:33;;;;;;;9.55;6.97;;;36.40;63.30;;;;;;5088624;28;20048;-47
2021/08/15 11:11:25;;;;;;;8.70;7.80;;;36.20;63.80;;;;;;5076970;28;20070;-45
2021/08/15 11:14:18;;;;;;;9.15;7.03;;;36.20;64.10;;;;;;5094185;28;20535;-44
2021/08/15 11:16:50;;;;;;;11.55;7.00;;;36.20;64.60;;;;;;5077105;28;20120;-45
2021/08/15 11:19:18;;;;;;;11.93;7.47;;;36.20;64.00;;;;;;5078114;28;20476;-44
2021/08/15 11:22:24;;;;;;;9.80;7.82;;;36.30;63.30;;;;;;5093291;28;20085;-44
2021/08/15 11:24:56;;;;;;;;;;;36.20;63.30;;;;;;5060738;28;20077;-45
2021/08/15 11:27:39;;;;;;;9.95;7.22;;;36.20;64.00;;;;;;5093326;28;19931;-44
2021/08/15 11:30:12;;;;;;;11.05;6.68;;;36.10;64.70;;;;;;5095640;28;20514;-44
2021/08/15 11:32:40;;;;;;;9.90;7.05;;;36.10;63.40;;;;;;5077402;28;20136;-44
2021/08/15 11:35:10;;;;;;;10.60;7.28;;;36.10;63.20;;;;;;5093682;28;20040;-45
2021/08/15 11:37:40;;;;;;;8.80;7.60;;;36.10;63.70;;;;;;5075934;28;20106;-45
2021/08/15 11:40:17;;;;;;;9.85;8.25;;;36.10;63.80;;;;;;5093042;28;20048;-45
2021/08/15 11:42:57;;;;;;;9.35;6.70;;;36.10;63.60;;;;;;5076302;28;20055;-46
2021/08/15 11:45:44;;;;;;;10.13;7.13;;;36.10;63.90;;;;;;5095177;28;20520;-44
2021/08/15 11:48:17;;;;;;;9.43;6.72;;;36.10;64.30;;;;;;5077483;28;20540;-44
2021/08/15 11:50:49;;;;;;;11.10;7.22;;;36.20;64.00;;;;;;5073730;28;20049;-44
2021/08/15 11:53:30;;;;;;;8.98;6.88;;;36.10;62.50;;;;;;5090942;28;20539;-46
2021/08/15 11:56:19;;;;;;;11.48;8.13;;;36.10;61.90;;;;;;5094062;28;20048;-44
2021/08/15 11:58:47;;;;;;;11.60;6.78;;;36.10;62.30;;;;;;5093275;28;20048;-45
2021/08/15 12:01:24;;;;;;;9.68;7.40;;;36.10;62.70;;;;;;5093461;28;20048;-45
2021/08/15 12:04:03;;;;;;;9.75;7.75;;;36.00;62.40;;;;;;5093307;28;20431;-45
2021/08/15 12:06:32;;;;;;;12.32;7.68;;;36.00;62.50;;;;;;5076543;28;20036;-45
2021/08/15 12:09:00;;;;;;;9.27;7.20;;;35.90;62.60;;;;;;5059721;28;20079;-44
2021/08/15 12:11:34;;;;;;;10.73;8.10;;;36.00;62.00;;;;;;5093580;28;20048;-44
2021/08/15 12:14:08;;;;;;;9.52;7.75;;;36.00;61.60;;;;;;5093276;28;20489;-44
2021/08/15 12:16:38;;;;;;;7.95;6.85;;;36.00;62.50;;;;;;5075765;28;20117;-45
2021/08/15 12:19:06;;;;;;;10.93;7.53;;;36.00;62.40;;;;;;5089394;28;20490;-45
2021/08/15 12:21:38;;;;;;;9.43;6.75;;;35.90;61.70;;;;;;5091857;28;20892;-44
2021/08/15 12:24:10;;;;;;;11.25;8.30;;;35.90;61.50;;;;;;5088934;28;20058;-45
2021/08/15 12:27:06;;;;;;;8.02;6.78;;;35.90;61.80;;;;;;5091565;28;20479;-48
2021/08/15 12:29:43;;;;;;;10.32;6.85;;;35.80;61.80;;;;;;5093968;28;20481;-45
2021/08/15 12:32:15;;;;;;;9.63;7.10;;;35.70;61.20;;;;;;5092111;28;20129;-44
2021/08/15 12:34:59;;;;;;;9.50;7.38;;;35.60;61.60;;;;;;5092772;28;20044;-45
2021/08/15 12:37:29;;;;;;;8.80;7.05;;;35.70;62.80;;;;;;5093435;28;20067;-44
2021/08/15 12:40:03;;;;;;;11.25;8.05;;;35.70;62.80;;;;;;5094232;28;20050;-46
2021/08/15 12:42:32;;;;;;;9.40;7.35;;;35.70;63.10;;;;;;5090824;28;20414;-46
2021/08/15 12:45:09;;;;;;;13.48;7.70;;;35.70;62.80;;;;;;5075693;28;20048;-44
2021/08/15 12:47:45;;;;;;;10.85;8.20;;;35.70;62.80;;;;;;5091906;28;20051;-44
2021/08/15 12:50:19;;;;;;;11.85;7.68;;;35.70;62.40;;;;;;5075404;28;20082;-45
2021/08/15 12:52:48;;;;;;;9.20;7.10;;;35.70;62.20;;;;;;5093201;28;20070;-44
2021/08/15 12:55:29;;;;;;;15.40;13.77;;;35.70;62.00;;;;;;5075230;28;20159;-46